PWSweather.com
Personal Weather Stations
Station Observations
KMAMEDFI2
Medfield, MA 02052

Medfield, MA 02052

Lat: 42.1900822, Lon: -71.3296889

Elevation: 138

Station Type: Rainwise WS MK-III

http://www.medfieldweather.com

High Low Average
Temperature 19.3°F-7.1°C 10.8°F-11.8°C 14.6°F-9.7°C
Dew Point 14.2°F-9.9°C 8.9°F-12.8°C 11.8°F-11.2°C
Winds 9.2 mph 14.8 kmh Calm Calm 2.0 mph SW3.2 kmh SW
Wind Gusts 10.4 mph16.7 kmh -- 2.0 mph3.2 kmh
Humidity 93% 74% 89%
Pressure 31.82 in1077.5 mb 31.42 in1064.0 mb -
Precipitation 0.00 in0.0 mm - -
Hour Temp Dew Point Humidity Winds Wind Gusts Pressure Precip Precip Rate Daily Precip Total
12:00 AM 10.9°F-11.7°C 9.0°F-12.8°C 92% Calm Calm -- 31.73 in1074.5 mb - 0.00 in0.0 mm 0.00 in0.0 mm
12:10 AM 10.8°F-11.8°C 8.9°F-12.8°C 92% Calm Calm 2.3 mph3.7 kmh 31.73 in1074.5 mb - 0.00 in0.0 mm 0.00 in0.0 mm
12:20 AM 10.9°F-11.7°C 9.0°F-12.8°C 92% 3.5 mph NNW5.6 kmh NNW 2.3 mph3.7 kmh 31.73 in1074.5 mb - 0.00 in0.0 mm 0.00 in0.0 mm
12:30 AM 10.8°F-11.8°C 8.9°F-12.8°C 92% 5.8 mph N9.3 kmh N 5.8 mph9.3 kmh 31.73 in1074.5 mb - 0.00 in0.0 mm 0.00 in0.0 mm
12:40 AM 11.0°F-11.7°C 9.1°F-12.7°C 92% 2.3 mph NW3.7 kmh NW 1.2 mph1.9 kmh 31.72 in1074.2 mb - 0.00 in0.0 mm 0.00 in0.0 mm
12:50 AM 11.1°F-11.6°C 9.5°F-12.5°C 93% Calm Calm 1.2 mph1.9 kmh 31.73 in1074.5 mb - 0.00 in0.0 mm 0.00 in0.0 mm
01:00 AM 11.2°F-11.6°C 9.6°F-12.4°C 93% 1.2 mph N1.9 kmh N 1.2 mph1.9 kmh 31.72 in1074.2 mb - 0.00 in0.0 mm 0.00 in0.0 mm
01:10 AM 11.4°F-11.4°C 9.8°F-12.3°C 93% Calm Calm -- 31.73 in1074.5 mb - 0.00 in0.0 mm 0.00 in0.0 mm
01:20 AM 11.5°F-11.4°C 9.9°F-12.3°C 93% Calm Calm -- 31.74 in1074.8 mb - 0.00 in0.0 mm 0.00 in0.0 mm
01:30 AM 11.7°F-11.3°C 10.1°F-12.2°C 93% 2.3 mph NW3.7 kmh NW 3.5 mph5.6 kmh 31.74 in1074.8 mb - 0.00 in0.0 mm 0.00 in0.0 mm
01:40 AM 11.9°F-11.2°C 10.3°F-12.1°C 93% Calm Calm 2.3 mph3.7 kmh 31.75 in1075.2 mb - 0.00 in0.0 mm 0.00 in0.0 mm
01:50 AM 12.1°F-11.1°C 10.5°F-11.9°C 93% 3.5 mph NW5.6 kmh NW 2.3 mph3.7 kmh 31.76 in1075.5 mb - 0.00 in0.0 mm 0.00 in0.0 mm
02:00 AM 12.1°F-11.1°C 10.5°F-11.9°C 93% 2.3 mph WNW3.7 kmh WNW 2.3 mph3.7 kmh 31.76 in1075.5 mb - 0.00 in0.0 mm 0.00 in0.0 mm
02:10 AM 12.0°F-11.1°C 10.3°F-12.1°C 93% Calm Calm 2.3 mph3.7 kmh 31.77 in1075.9 mb - 0.00 in0.0 mm 0.00 in0.0 mm
02:20 AM 12.2°F-11.0°C 10.6°F-11.9°C 93% 3.5 mph NNW5.6 kmh NNW 2.3 mph3.7 kmh 31.78 in1076.2 mb - 0.00 in0.0 mm 0.00 in0.0 mm
02:30 AM 12.2°F-11.0°C 10.6°F-11.9°C 93% 2.3 mph E3.7 kmh E 2.3 mph3.7 kmh 31.78 in1076.2 mb - 0.00 in0.0 mm 0.00 in0.0 mm
02:40 AM 12.4°F-10.9°C 10.8°F-11.8°C 93% 1.2 mph NE1.9 kmh NE 2.3 mph3.7 kmh 31.77 in1075.9 mb - 0.00 in0.0 mm 0.00 in0.0 mm
02:50 AM 12.5°F-10.8°C 10.9°F-11.7°C 93% 2.3 mph WNW3.7 kmh WNW 2.3 mph3.7 kmh 31.77 in1075.9 mb - 0.00 in0.0 mm 0.00 in0.0 mm
03:00 AM 12.7°F-10.7°C 11.1°F-11.6°C 93% 2.3 mph W3.7 kmh W 3.5 mph5.6 kmh 31.78 in1076.2 mb - 0.00 in0.0 mm 0.00 in0.0 mm
03:10 AM 12.7°F-10.7°C 11.1°F-11.6°C 93% 2.3 mph SW3.7 kmh SW 2.3 mph3.7 kmh 31.79 in1076.5 mb - 0.00 in0.0 mm 0.00 in0.0 mm
03:20 AM 12.8°F-10.7°C 11.2°F-11.6°C 93% 3.5 mph W5.6 kmh W 2.3 mph3.7 kmh 31.78 in1076.2 mb - 0.00 in0.0 mm 0.00 in0.0 mm
03:30 AM 12.9°F-10.6°C 11.3°F-11.5°C 93% 2.3 mph SSW3.7 kmh SSW 1.2 mph1.9 kmh 31.78 in1076.2 mb - 0.00 in0.0 mm 0.00 in0.0 mm
03:40 AM 12.8°F-10.7°C 11.2°F-11.6°C 93% 2.3 mph W3.7 kmh W 2.3 mph3.7 kmh 31.78 in1076.2 mb - 0.00 in0.0 mm 0.00 in0.0 mm
03:50 AM 12.9°F-10.6°C 11.3°F-11.5°C 93% 2.3 mph NW3.7 kmh NW 2.3 mph3.7 kmh 31.78 in1076.2 mb - 0.00 in0.0 mm 0.00 in0.0 mm
04:00 AM 12.8°F-10.7°C 11.2°F-11.6°C 93% 2.3 mph NNE3.7 kmh NNE 1.2 mph1.9 kmh 31.78 in1076.2 mb - 0.00 in0.0 mm 0.00 in0.0 mm
04:10 AM 12.8°F-10.7°C 11.2°F-11.6°C 93% 9.2 mph WNW14.8 kmh WNW 9.2 mph14.8 kmh 31.78 in1076.2 mb - 0.00 in0.0 mm 0.00 in0.0 mm
04:20 AM 12.7°F-10.7°C 11.1°F-11.6°C 93% 2.3 mph WNW3.7 kmh WNW 9.2 mph14.8 kmh 31.77 in1075.9 mb - 0.00 in0.0 mm 0.00 in0.0 mm
04:30 AM 12.6°F-10.8°C 11.0°F-11.7°C 93% 1.2 mph W1.9 kmh W 1.2 mph1.9 kmh 31.78 in1076.2 mb - 0.00 in0.0 mm 0.00 in0.0 mm
04:40 AM 12.6°F-10.8°C 11.0°F-11.7°C 93% 2.3 mph NNE3.7 kmh NNE 2.3 mph3.7 kmh 31.79 in1076.5 mb - 0.00 in0.0 mm 0.00 in0.0 mm
04:50 AM 12.6°F-10.8°C 11.0°F-11.7°C 93% 3.5 mph WNW5.6 kmh WNW 2.3 mph3.7 kmh 31.79 in1076.5 mb - 0.00 in0.0 mm 0.00 in0.0 mm
05:00 AM 12.6°F-10.8°C 11.0°F-11.7°C 93% 4.6 mph NW7.4 kmh NW 3.5 mph5.6 kmh 31.80 in1076.9 mb - 0.00 in0.0 mm 0.00 in0.0 mm
05:10 AM 12.6°F-10.8°C 11.0°F-11.7°C 93% 2.3 mph NNW3.7 kmh NNW 2.3 mph3.7 kmh 31.80 in1076.9 mb - 0.00 in0.0 mm 0.00 in0.0 mm
05:20 AM 12.6°F-10.8°C 11.0°F-11.7°C 93% 1.2 mph E1.9 kmh E -- 31.81 in1077.2 mb - 0.00 in0.0 mm 0.00 in0.0 mm
05:30 AM 12.5°F-10.8°C 10.9°F-11.7°C 93% 3.5 mph WNW5.6 kmh WNW 1.2 mph1.9 kmh 31.81 in1077.2 mb - 0.00 in0.0 mm 0.00 in0.0 mm
05:40 AM 12.5°F-10.8°C 10.9°F-11.7°C 93% 2.3 mph NE3.7 kmh NE 2.3 mph3.7 kmh 31.82 in1077.5 mb - 0.00 in0.0 mm 0.00 in0.0 mm
05:50 AM 12.5°F-10.8°C 10.9°F-11.7°C 93% 4.6 mph WNW7.4 kmh WNW 5.8 mph9.3 kmh 31.82 in1077.5 mb - 0.00 in0.0 mm 0.00 in0.0 mm
06:00 AM 12.5°F-10.8°C 10.9°F-11.7°C 93% 1.2 mph NNW1.9 kmh NNW -- 31.82 in1077.5 mb - 0.00 in0.0 mm 0.00 in0.0 mm
06:10 AM 12.4°F-10.9°C 10.8°F-11.8°C 93% 2.3 mph NW3.7 kmh NW 1.2 mph1.9 kmh 31.82 in1077.5 mb - 0.00 in0.0 mm 0.00 in0.0 mm
06:20 AM 12.3°F-10.9°C 10.7°F-11.8°C 93% 3.5 mph NE5.6 kmh NE 2.3 mph3.7 kmh 31.82 in1077.5 mb - 0.00 in0.0 mm 0.00 in0.0 mm
06:30 AM 12.1°F-11.1°C 10.5°F-11.9°C 93% Calm Calm 2.3 mph3.7 kmh 31.81 in1077.2 mb - 0.00 in0.0 mm 0.00 in0.0 mm
06:40 AM 11.9°F-11.2°C 10.3°F-12.1°C 93% 1.2 mph WSW1.9 kmh WSW 1.2 mph1.9 kmh 31.81 in1077.2 mb - 0.00 in0.0 mm 0.00 in0.0 mm
06:50 AM 11.8°F-11.2°C 10.2°F-12.1°C 93% 2.3 mph NE3.7 kmh NE 5.8 mph9.3 kmh 31.82 in1077.5 mb - 0.00 in0.0 mm 0.00 in0.0 mm
07:00 AM 11.8°F-11.2°C 10.2°F-12.1°C 93% Calm Calm 1.2 mph1.9 kmh 31.82 in1077.5 mb - 0.00 in0.0 mm 0.00 in0.0 mm
07:10 AM 11.6°F-11.3°C 10.0°F-12.2°C 93% 2.3 mph SE3.7 kmh SE 1.2 mph1.9 kmh 31.82 in1077.5 mb - 0.00 in0.0 mm 0.00 in0.0 mm
07:20 AM 11.6°F-11.3°C 10.0°F-12.2°C 93% 4.6 mph NW7.4 kmh NW 2.3 mph3.7 kmh 31.82 in1077.5 mb - 0.00 in0.0 mm 0.00 in0.0 mm
07:30 AM 11.6°F-11.3°C 10.0°F-12.2°C 93% 1.2 mph WNW1.9 kmh WNW 1.2 mph1.9 kmh 31.82 in1077.5 mb - 0.00 in0.0 mm 0.00 in0.0 mm
07:40 AM 11.4°F-11.4°C 9.8°F-12.3°C 93% 3.5 mph W5.6 kmh W 3.5 mph5.6 kmh 31.82 in1077.5 mb - 0.00 in0.0 mm 0.00 in0.0 mm
07:50 AM 11.3°F-11.5°C 9.7°F-12.4°C 93% 2.3 mph NW3.7 kmh NW 1.2 mph1.9 kmh 31.82 in1077.5 mb - 0.00 in0.0 mm 0.00 in0.0 mm
08:00 AM 11.3°F-11.5°C 9.7°F-12.4°C 93% 2.3 mph SE3.7 kmh SE 2.3 mph3.7 kmh 31.82 in1077.5 mb - 0.00 in0.0 mm 0.00 in0.0 mm
08:10 AM 11.4°F-11.4°C 9.8°F-12.3°C 93% 3.5 mph E5.6 kmh E 2.3 mph3.7 kmh 31.81 in1077.2 mb - 0.00 in0.0 mm 0.00 in0.0 mm
08:20 AM 11.4°F-11.4°C 9.8°F-12.3°C 93% 4.6 mph NE7.4 kmh NE 5.8 mph9.3 kmh 31.80 in1076.9 mb - 0.00 in0.0 mm 0.00 in0.0 mm
08:30 AM 11.5°F-11.4°C 9.9°F-12.3°C 93% Calm Calm 9.2 mph14.8 kmh 31.80 in1076.9 mb - 0.00 in0.0 mm 0.00 in0.0 mm
08:40 AM 11.3°F-11.5°C 9.7°F-12.4°C 93% 3.5 mph W5.6 kmh W 1.2 mph1.9 kmh 31.80 in1076.9 mb - 0.00 in0.0 mm 0.00 in0.0 mm
08:50 AM 11.1°F-11.6°C 9.5°F-12.5°C 93% 1.2 mph S1.9 kmh S -- 31.80 in1076.9 mb - 0.00 in0.0 mm 0.00 in0.0 mm
09:00 AM 11.1°F-11.6°C 9.5°F-12.5°C 93% 8.1 mph NE13.0 kmh NE 6.9 mph11.1 kmh 31.79 in1076.5 mb - 0.00 in0.0 mm 0.00 in0.0 mm
09:10 AM 11.2°F-11.6°C 9.6°F-12.4°C 93% 2.3 mph WNW3.7 kmh WNW 1.2 mph1.9 kmh 31.78 in1076.2 mb - 0.00 in0.0 mm 0.00 in0.0 mm
09:20 AM 11.4°F-11.4°C 9.8°F-12.3°C 93% 3.5 mph WSW5.6 kmh WSW 2.3 mph3.7 kmh 31.76 in1075.5 mb - 0.00 in0.0 mm 0.00 in0.0 mm
09:30 AM 11.3°F-11.5°C 9.7°F-12.4°C 93% 1.2 mph WSW1.9 kmh WSW 1.2 mph1.9 kmh 31.75 in1075.2 mb - 0.00 in0.0 mm 0.00 in0.0 mm
09:40 AM 11.3°F-11.5°C 9.7°F-12.4°C 93% 1.2 mph NNW1.9 kmh NNW 2.3 mph3.7 kmh 31.74 in1074.8 mb - 0.00 in0.0 mm 0.00 in0.0 mm
09:50 AM 11.5°F-11.4°C 9.9°F-12.3°C 93% 4.6 mph ENE7.4 kmh ENE 2.3 mph3.7 kmh 31.72 in1074.2 mb - 0.00 in0.0 mm 0.00 in0.0 mm
10:00 AM 11.6°F-11.3°C 10.0°F-12.2°C 93% 3.5 mph SW5.6 kmh SW 2.3 mph3.7 kmh 31.70 in1073.5 mb - 0.00 in0.0 mm 0.00 in0.0 mm
10:10 AM 11.8°F-11.2°C 10.2°F-12.1°C 93% Calm Calm -- 31.69 in1073.1 mb - 0.00 in0.0 mm 0.00 in0.0 mm
10:20 AM 11.7°F-11.3°C 10.1°F-12.2°C 93% Calm Calm -- 31.68 in1072.8 mb - 0.00 in0.0 mm 0.00 in0.0 mm
10:30 AM 11.9°F-11.2°C 10.3°F-12.1°C 93% 3.5 mph WNW5.6 kmh WNW 2.3 mph3.7 kmh 31.67 in1072.5 mb - 0.00 in0.0 mm 0.00 in0.0 mm
10:40 AM 12.3°F-10.9°C 10.7°F-11.8°C 93% 1.2 mph NNW1.9 kmh NNW 2.3 mph3.7 kmh 31.65 in1071.8 mb - 0.00 in0.0 mm 0.00 in0.0 mm
10:50 AM 12.4°F-10.9°C 10.8°F-11.8°C 93% 2.3 mph N3.7 kmh N 2.3 mph3.7 kmh 31.64 in1071.5 mb - 0.00 in0.0 mm 0.00 in0.0 mm
11:00 AM 12.6°F-10.8°C 11.0°F-11.7°C 93% 2.3 mph WNW3.7 kmh WNW 2.3 mph3.7 kmh 31.62 in1070.8 mb - 0.00 in0.0 mm 0.00 in0.0 mm
11:10 AM 12.9°F-10.6°C 11.3°F-11.5°C 93% 2.3 mph SE3.7 kmh SE 2.3 mph3.7 kmh 31.60 in1070.1 mb - 0.00 in0.0 mm 0.00 in0.0 mm
11:20 AM 13.5°F-10.3°C 11.8°F-11.2°C 93% 3.5 mph SSW5.6 kmh SSW 2.3 mph3.7 kmh 31.58 in1069.4 mb - 0.00 in0.0 mm 0.00 in0.0 mm
11:30 AM 13.6°F-10.2°C 12.0°F-11.1°C 93% 2.3 mph E3.7 kmh E 2.3 mph3.7 kmh 31.58 in1069.4 mb - 0.00 in0.0 mm 0.00 in0.0 mm
11:40 AM 13.9°F-10.1°C 12.3°F-10.9°C 93% 2.3 mph ESE3.7 kmh ESE 1.2 mph1.9 kmh 31.57 in1069.1 mb - 0.00 in0.0 mm 0.00 in0.0 mm
11:50 AM 14.2°F-9.9°C 12.5°F-10.8°C 93% 2.3 mph SW3.7 kmh SW 2.3 mph3.7 kmh 31.56 in1068.7 mb - 0.00 in0.0 mm 0.00 in0.0 mm
12:00 PM 14.4°F-9.8°C 12.7°F-10.7°C 93% 3.5 mph WNW5.6 kmh WNW 5.8 mph9.3 kmh 31.54 in1068.1 mb - 0.00 in0.0 mm 0.00 in0.0 mm
12:10 PM 14.6°F-9.7°C 12.9°F-10.6°C 93% 3.5 mph E5.6 kmh E 2.3 mph3.7 kmh 31.54 in1068.1 mb - 0.00 in0.0 mm 0.00 in0.0 mm
12:20 PM 14.6°F-9.7°C 12.9°F-10.6°C 93% 2.3 mph WSW3.7 kmh WSW 2.3 mph3.7 kmh 31.52 in1067.4 mb - 0.00 in0.0 mm 0.00 in0.0 mm
12:30 PM 14.7°F-9.6°C 13.0°F-10.6°C 93% 5.8 mph NNW9.3 kmh NNW 8.1 mph13.0 kmh 31.52 in1067.4 mb - 0.00 in0.0 mm 0.00 in0.0 mm
12:40 PM 14.8°F-9.6°C 13.1°F-10.5°C 93% 5.8 mph WSW9.3 kmh WSW 10.4 mph16.7 kmh 31.51 in1067.1 mb - 0.00 in0.0 mm 0.00 in0.0 mm
12:50 PM 14.8°F-9.6°C 13.2°F-10.4°C 93% 5.8 mph E9.3 kmh E 5.8 mph9.3 kmh 31.49 in1066.4 mb - 0.00 in0.0 mm 0.00 in0.0 mm
01:00 PM 14.9°F-9.5°C 13.2°F-10.4°C 93% 4.6 mph NW7.4 kmh NW 5.8 mph9.3 kmh 31.48 in1066.0 mb - 0.00 in0.0 mm 0.00 in0.0 mm
01:10 PM 15.1°F-9.4°C 13.4°F-10.3°C 93% 1.2 mph E1.9 kmh E 1.2 mph1.9 kmh 31.47 in1065.7 mb - 0.00 in0.0 mm 0.00 in0.0 mm
01:20 PM 15.3°F-9.3°C 13.6°F-10.2°C 93% 4.6 mph NNW7.4 kmh NNW 3.5 mph5.6 kmh 31.46 in1065.4 mb - 0.00 in0.0 mm 0.00 in0.0 mm
01:30 PM 15.5°F-9.2°C 13.8°F-10.1°C 93% 3.5 mph S5.6 kmh S 2.3 mph3.7 kmh 31.44 in1064.7 mb - 0.00 in0.0 mm 0.00 in0.0 mm
01:40 PM 15.7°F-9.1°C 14.0°F-10.0°C 93% 1.2 mph E1.9 kmh E 1.2 mph1.9 kmh 31.43 in1064.3 mb - 0.00 in0.0 mm 0.00 in0.0 mm
01:50 PM 15.9°F-8.9°C 14.2°F-9.9°C 93% 3.5 mph NNW5.6 kmh NNW 2.3 mph3.7 kmh 31.42 in1064.0 mb - 0.00 in0.0 mm 0.00 in0.0 mm
02:00 PM 15.8°F-9.0°C 14.1°F-9.9°C 93% 2.3 mph SSW3.7 kmh SSW 2.3 mph3.7 kmh 31.42 in1064.0 mb - 0.00 in0.0 mm 0.00 in0.0 mm
02:10 PM 15.8°F-9.0°C 14.1°F-9.9°C 93% 3.5 mph WNW5.6 kmh WNW 2.3 mph3.7 kmh 31.42 in1064.0 mb - 0.00 in0.0 mm 0.00 in0.0 mm
02:20 PM 15.6°F-9.1°C 13.9°F-10.1°C 93% 4.6 mph NW7.4 kmh NW 3.5 mph5.6 kmh 31.42 in1064.0 mb - 0.00 in0.0 mm 0.00 in0.0 mm
02:30 PM 15.5°F-9.2°C 13.8°F-10.1°C 93% Calm Calm -- 31.43 in1064.3 mb - 0.00 in0.0 mm 0.00 in0.0 mm
02:40 PM 15.6°F-9.1°C 13.9°F-10.1°C 93% 3.5 mph NW5.6 kmh NW 2.3 mph3.7 kmh 31.43 in1064.3 mb - 0.00 in0.0 mm 0.00 in0.0 mm
02:50 PM 15.6°F-9.1°C 13.9°F-10.1°C 93% 1.2 mph NW1.9 kmh NW 1.2 mph1.9 kmh 31.44 in1064.7 mb - 0.00 in0.0 mm 0.00 in0.0 mm
03:00 PM 15.5°F-9.2°C 13.8°F-10.1°C 93% Calm Calm -- 31.45 in1065.0 mb - 0.00 in0.0 mm 0.00 in0.0 mm
03:10 PM 15.5°F-9.2°C 13.8°F-10.1°C 93% 2.3 mph WNW3.7 kmh WNW 3.5 mph5.6 kmh 31.46 in1065.4 mb - 0.00 in0.0 mm 0.00 in0.0 mm
03:20 PM 15.6°F-9.1°C 13.9°F-10.1°C 93% Calm Calm 1.2 mph1.9 kmh 31.47 in1065.7 mb - 0.00 in0.0 mm 0.00 in0.0 mm
03:30 PM 15.7°F-9.1°C 13.5°F-10.3°C 91% 3.5 mph WNW5.6 kmh WNW 2.3 mph3.7 kmh 31.48 in1066.0 mb - 0.00 in0.0 mm 0.00 in0.0 mm
03:40 PM 15.7°F-9.1°C 13.0°F-10.6°C 89% 8.1 mph SSW13.0 kmh SSW 8.1 mph13.0 kmh 31.48 in1066.0 mb - 0.00 in0.0 mm 0.00 in0.0 mm
03:50 PM 15.8°F-9.0°C 13.1°F-10.5°C 89% 5.8 mph WSW9.3 kmh WSW 5.8 mph9.3 kmh 31.50 in1066.7 mb - 0.00 in0.0 mm 0.00 in0.0 mm
04:00 PM 15.9°F-8.9°C 13.2°F-10.4°C 89% 2.3 mph WSW3.7 kmh WSW 1.2 mph1.9 kmh 31.50 in1066.7 mb - 0.00 in0.0 mm 0.00 in0.0 mm
04:10 PM 15.9°F-8.9°C 13.2°F-10.4°C 89% 1.2 mph ENE1.9 kmh ENE 5.8 mph9.3 kmh 31.51 in1067.1 mb - 0.00 in0.0 mm 0.00 in0.0 mm
04:20 PM 15.9°F-8.9°C 12.7°F-10.7°C 87% 3.5 mph N5.6 kmh N 2.3 mph3.7 kmh 31.52 in1067.4 mb - 0.00 in0.0 mm 0.00 in0.0 mm
04:30 PM 16.1°F-8.8°C 12.4°F-10.9°C 85% 2.3 mph NNW3.7 kmh NNW 3.5 mph5.6 kmh 31.53 in1067.7 mb - 0.00 in0.0 mm 0.00 in0.0 mm
04:40 PM 16.2°F-8.8°C 12.7°F-10.7°C 86% Calm Calm -- 31.54 in1068.1 mb - 0.00 in0.0 mm 0.00 in0.0 mm
04:50 PM 16.3°F-8.7°C 12.6°F-10.8°C 85% 1.2 mph WNW1.9 kmh WNW 1.2 mph1.9 kmh 31.55 in1068.4 mb - 0.00 in0.0 mm 0.00 in0.0 mm
05:00 PM 16.4°F-8.7°C 12.4°F-10.9°C 84% Calm Calm -- 31.55 in1068.4 mb - 0.00 in0.0 mm 0.00 in0.0 mm
05:10 PM 16.6°F-8.6°C 12.1°F-11.1°C 82% 3.5 mph W5.6 kmh W 2.3 mph3.7 kmh 31.56 in1068.7 mb - 0.00 in0.0 mm 0.00 in0.0 mm
05:20 PM 16.8°F-8.4°C 11.7°F-11.3°C 80% 3.5 mph W5.6 kmh W 2.3 mph3.7 kmh 31.57 in1069.1 mb - 0.00 in0.0 mm 0.00 in0.0 mm
05:30 PM 16.8°F-8.4°C 12.0°F-11.1°C 81% 1.2 mph WNW1.9 kmh WNW 1.2 mph1.9 kmh 31.57 in1069.1 mb - 0.00 in0.0 mm 0.00 in0.0 mm
05:40 PM 16.9°F-8.4°C 11.8°F-11.2°C 80% 3.5 mph N5.6 kmh N 2.3 mph3.7 kmh 31.57 in1069.1 mb - 0.00 in0.0 mm 0.00 in0.0 mm
05:50 PM 17.0°F-8.3°C 11.9°F-11.2°C 80% 3.5 mph N5.6 kmh N 2.3 mph3.7 kmh 31.58 in1069.4 mb - 0.00 in0.0 mm 0.00 in0.0 mm
06:00 PM 17.2°F-8.2°C 12.4°F-10.9°C 81% 1.2 mph WNW1.9 kmh WNW 1.2 mph1.9 kmh 31.59 in1069.8 mb - 0.00 in0.0 mm 0.00 in0.0 mm
06:10 PM 17.4°F-8.1°C 12.6°F-10.8°C 81% Calm Calm 1.2 mph1.9 kmh 31.61 in1070.4 mb - 0.00 in0.0 mm 0.00 in0.0 mm
06:20 PM 17.6°F-8.0°C 12.8°F-10.7°C 81% 2.3 mph WNW3.7 kmh WNW 3.5 mph5.6 kmh 31.61 in1070.4 mb - 0.00 in0.0 mm 0.00 in0.0 mm
06:30 PM 17.7°F-7.9°C 12.3°F-10.9°C 79% 2.3 mph SW3.7 kmh SW 2.3 mph3.7 kmh 31.62 in1070.8 mb - 0.00 in0.0 mm 0.00 in0.0 mm
06:40 PM 17.9°F-7.8°C 12.2°F-11.0°C 78% 2.3 mph WNW3.7 kmh WNW 2.3 mph3.7 kmh 31.63 in1071.1 mb - 0.00 in0.0 mm 0.00 in0.0 mm
06:50 PM 17.9°F-7.8°C 12.8°F-10.7°C 80% 3.5 mph WSW5.6 kmh WSW 2.3 mph3.7 kmh 31.63 in1071.1 mb - 0.00 in0.0 mm 0.00 in0.0 mm
07:00 PM 18.1°F-7.7°C 12.7°F-10.7°C 79% 2.3 mph NW3.7 kmh NW 2.3 mph3.7 kmh 31.64 in1071.5 mb - 0.00 in0.0 mm 0.00 in0.0 mm
07:10 PM 18.3°F-7.6°C 12.6°F-10.8°C 78% 2.3 mph NW3.7 kmh NW 2.3 mph3.7 kmh 31.65 in1071.8 mb - 0.00 in0.0 mm 0.00 in0.0 mm
07:20 PM 18.4°F-7.6°C 12.7°F-10.7°C 78% Calm Calm 2.3 mph3.7 kmh 31.66 in1072.1 mb - 0.00 in0.0 mm 0.00 in0.0 mm
07:30 PM 18.5°F-7.5°C 12.2°F-11.0°C 76% 1.2 mph WSW1.9 kmh WSW 1.2 mph1.9 kmh 31.67 in1072.5 mb - 0.00 in0.0 mm 0.00 in0.0 mm
07:40 PM 18.6°F-7.4°C 11.7°F-11.3°C 74% 4.6 mph W7.4 kmh W 6.9 mph11.1 kmh 31.67 in1072.5 mb - 0.00 in0.0 mm 0.00 in0.0 mm
07:50 PM 18.6°F-7.4°C 11.7°F-11.3°C 74% 3.5 mph NW5.6 kmh NW 2.3 mph3.7 kmh 31.67 in1072.5 mb - 0.00 in0.0 mm 0.00 in0.0 mm
08:00 PM 18.7°F-7.4°C 11.8°F-11.2°C 74% Calm Calm -- 31.67 in1072.5 mb - 0.00 in0.0 mm 0.00 in0.0 mm
08:10 PM 18.8°F-7.3°C 12.5°F-10.8°C 76% 3.5 mph N5.6 kmh N 3.5 mph5.6 kmh 31.66 in1072.1 mb - 0.00 in0.0 mm 0.00 in0.0 mm
08:20 PM 18.8°F-7.3°C 12.5°F-10.8°C 76% 2.3 mph NNW3.7 kmh NNW 2.3 mph3.7 kmh 31.65 in1071.8 mb - 0.00 in0.0 mm 0.00 in0.0 mm
08:30 PM 18.8°F-7.3°C 12.8°F-10.7°C 77% 1.2 mph SE1.9 kmh SE 2.3 mph3.7 kmh 31.65 in1071.8 mb - 0.00 in0.0 mm 0.00 in0.0 mm
08:40 PM 18.9°F-7.3°C 13.2°F-10.4°C 78% 1.2 mph NE1.9 kmh NE 1.2 mph1.9 kmh 31.65 in1071.8 mb - 0.00 in0.0 mm 0.00 in0.0 mm
08:50 PM 18.9°F-7.3°C 13.2°F-10.4°C 78% 1.2 mph SW1.9 kmh SW -- 31.65 in1071.8 mb - 0.00 in0.0 mm 0.00 in0.0 mm
09:00 PM 18.9°F-7.3°C 13.5°F-10.3°C 79% 2.3 mph SW3.7 kmh SW 2.3 mph3.7 kmh 31.65 in1071.8 mb - 0.00 in0.0 mm 0.00 in0.0 mm
09:10 PM 18.9°F-7.3°C 13.5°F-10.3°C 79% 3.5 mph SW5.6 kmh SW 2.3 mph3.7 kmh 31.66 in1072.1 mb - 0.00 in0.0 mm 0.00 in0.0 mm
09:20 PM 19.1°F-7.2°C 14.2°F-9.9°C 81% 2.3 mph WSW3.7 kmh WSW 1.2 mph1.9 kmh 31.67 in1072.5 mb - 0.00 in0.0 mm 0.00 in0.0 mm
09:30 PM 19.1°F-7.2°C 13.9°F-10.1°C 80% 3.5 mph NNW5.6 kmh NNW 2.3 mph3.7 kmh 31.67 in1072.5 mb - 0.00 in0.0 mm 0.00 in0.0 mm
09:40 PM 19.1°F-7.2°C 13.9°F-10.1°C 80% 3.5 mph WSW5.6 kmh WSW 2.3 mph3.7 kmh 31.67 in1072.5 mb - 0.00 in0.0 mm 0.00 in0.0 mm
09:50 PM 18.9°F-7.3°C 13.7°F-10.2°C 80% 2.3 mph NE3.7 kmh NE 2.3 mph3.7 kmh 31.65 in1071.8 mb - 0.00 in0.0 mm 0.00 in0.0 mm
10:00 PM 18.7°F-7.4°C 14.1°F-9.9°C 82% 1.2 mph N1.9 kmh N 1.2 mph1.9 kmh 31.65 in1071.8 mb - 0.00 in0.0 mm 0.00 in0.0 mm
10:10 PM 18.5°F-7.5°C 13.6°F-10.2°C 81% Calm Calm -- 31.65 in1071.8 mb - 0.00 in0.0 mm 0.00 in0.0 mm
10:20 PM 18.7°F-7.4°C 13.3°F-10.4°C 79% Calm Calm -- 31.65 in1071.8 mb - 0.00 in0.0 mm 0.00 in0.0 mm
10:30 PM 18.9°F-7.3°C 13.5°F-10.3°C 79% Calm Calm 1.2 mph1.9 kmh 31.64 in1071.5 mb - 0.00 in0.0 mm 0.00 in0.0 mm
10:40 PM 19.0°F-7.2°C 13.8°F-10.1°C 80% 2.3 mph W3.7 kmh W 2.3 mph3.7 kmh 31.64 in1071.5 mb - 0.00 in0.0 mm 0.00 in0.0 mm
10:50 PM 19.1°F-7.2°C 13.7°F-10.2°C 79% 1.2 mph WNW1.9 kmh WNW 2.3 mph3.7 kmh 31.64 in1071.5 mb - 0.00 in0.0 mm 0.00 in0.0 mm
11:00 PM 19.2°F-7.1°C 13.2°F-10.4°C 77% 6.9 mph NW11.1 kmh NW 5.8 mph9.3 kmh 31.63 in1071.1 mb - 0.00 in0.0 mm 0.00 in0.0 mm
11:10 PM 19.2°F-7.1°C 13.5°F-10.3°C 78% 2.3 mph N3.7 kmh N 2.3 mph3.7 kmh 31.63 in1071.1 mb - 0.00 in0.0 mm 0.00 in0.0 mm
11:20 PM 19.3°F-7.1°C 13.5°F-10.3°C 78% 1.2 mph WSW1.9 kmh WSW -- 31.63 in1071.1 mb - 0.00 in0.0 mm 0.00 in0.0 mm
11:30 PM 19.2°F-7.1°C 13.5°F-10.3°C 78% 1.2 mph N1.9 kmh N 2.3 mph3.7 kmh 31.63 in1071.1 mb - 0.00 in0.0 mm 0.00 in0.0 mm
11:40 PM 19.2°F-7.1°C 13.5°F-10.3°C 78% 3.5 mph WNW5.6 kmh WNW 2.3 mph3.7 kmh 31.62 in1070.8 mb - 0.00 in0.0 mm 0.00 in0.0 mm
11:50 PM 19.3°F-7.1°C 13.9°F-10.1°C 79% 2.3 mph W3.7 kmh W 2.3 mph3.7 kmh 31.63 in1071.1 mb - 0.00 in0.0 mm 0.00 in0.0 mm